Terminal Aerodrome Forecast
Issued by NWS

Home | Current Version | Previous Version | Text Only | Print | Product List | Glossary Off
Versions: 1 2 3 4 5 6 7 8 9 10 11 12 13 14 15 16

891
FTUS43 KICT 101130
TAFSLN
TAF
KSLN 101130Z 1012/1112 18008KT P6SM SKC
     FM101600 24012KT P6SM SKC
     FM101900 28015G23KT P6SM SKC
     FM102300 33011KT P6SM SKC
     FM110900 36011KT P6SM SCT015=

USA.gov is the U.S. government's official web portal to all federal, state and local government web resources and services.